Natividade da Serra, Brazil
Current Conditions -  °F | °C
As of 7:00 AM on Wednesday 28 Jan 2015 (Local Time) from SBSJ Reporting Station
Haze Haze  
Wind Chill: 73°   Ceiling: 4000
Heat Index: 73°   Visibility: 3mi
Dew Point: 70°   Wind: 2mph
Humidity: 88%   Direction: 30°NNE
Pressure: 30.03"   Gusts: NA
Location:  23.38°S, 45.44°W
Report Text: SBSJ 280900Z 03002KT 5000 BR FEW017 SCT020 BKN040 23/21 Q1017
Loading
Personal Weather Stations






























Interactive Weather Map New forecast layout! Learn more

10-Day Weather Forecast

Advertisements
Track Severe Weather on mobile